Time;durP1;ratioP1;P1;durP2;ratioP2;P2;SDS_P1;SDS_P2;PMS_P1;PMS_P2;Temp;Humidity;BMP_temperature;BMP_pressure;BME280_temperature;BME280_humidity;BME280_pressure;Samples;Min_cycle;Max_cycle;Signal;HPM_P1;HPM_P2
2021/01/29 00:00:00;;;;;;;45.35;18.05;;;;;;;-0.64;89.29;97248.63;2178982;82;21146;-64
2021/01/29 00:03:02;;;;;;;41.40;17.45;;;;;;;-0.66;89.32;97247.86;2178701;81;21150;-63
2021/01/29 00:06:04;;;;;;;40.38;15.50;;;;;;;-0.69;88.90;97254.39;2179449;81;21329;-63
2021/01/29 00:09:06;;;;;;;38.70;14.35;;;;;;;-0.72;88.34;97258.39;2178709;81;21733;-62
2021/01/29 00:12:09;;;;;;;34.30;14.07;;;;;;;-0.78;85.63;97263.80;2179085;81;21328;-66
2021/01/29 00:15:11;;;;;;;36.42;14.65;;;;;;;-0.85;86.38;97261.91;2178834;81;21165;-64
2021/01/29 00:18:13;;;;;;;36.80;14.83;;;;;;;-0.88;86.44;97259.45;2178654;81;21297;-66
2021/01/29 00:21:15;;;;;;;35.68;14.20;;;;;;;-0.90;86.20;97255.66;2178815;81;21154;-64
2021/01/29 00:24:17;;;;;;;34.95;13.32;;;;;;;-0.93;86.02;97247.23;2178836;82;21265;-63
2021/01/29 00:27:19;;;;;;;36.25;13.75;;;;;;;-0.99;86.06;97248.75;2178504;81;21744;-67
2021/01/29 00:30:21;;;;;;;34.55;12.93;;;;;;;-1.01;86.62;97246.70;2178549;81;21284;-64
2021/01/29 00:33:24;;;;;;;34.23;13.35;;;;;;;-1.02;86.45;97253.59;2178794;81;21111;-68
2021/01/29 00:36:26;;;;;;;31.70;11.22;;;;;;;-1.03;86.12;97253.62;2178521;81;21269;-64
2021/01/29 00:39:28;;;;;;;31.90;10.72;;;;;;;-1.05;85.62;97249.82;2178887;81;21193;-63
2021/01/29 00:42:30;;;;;;;28.50;9.20;;;;;;;-1.28;84.32;97232.71;2179014;81;21269;-63
2021/01/29 00:45:32;;;;;;;24.30;7.78;;;;;;;-1.15;84.06;97266.09;2178567;82;21756;-63
2021/01/29 00:48:34;;;;;;;24.87;7.12;;;;;;;-1.28;80.99;97278.59;2178570;81;21273;-62
2021/01/29 00:51:36;;;;;;;22.40;7.75;;;;;;;-1.41;80.54;97278.22;2179055;81;21284;-63
2021/01/29 00:54:38;;;;;;;24.50;7.75;;;;;;;-1.53;80.31;97287.66;2178786;81;21300;-62
2021/01/29 00:57:40;;;;;;;25.00;7.00;;;;;;;-1.64;81.20;97269.22;2178483;81;21281;-63
2021/01/29 01:00:43;;;;;;;24.85;7.12;;;;;;;-1.77;81.21;97267.11;2178826;81;21294;-63
2021/01/29 01:03:45;;;;;;;22.22;7.20;;;;;;;-1.88;80.49;97275.65;2178553;81;21256;-63
2021/01/29 01:06:47;;;;;;;22.82;6.75;;;;;;;-1.98;81.08;97275.13;2178634;82;21714;-63
2021/01/29 01:09:49;;;;;;;22.58;6.95;;;;;;;-2.09;81.20;97282.38;2178786;82;21289;-63
2021/01/29 01:12:51;;;;;;;23.40;7.53;;;;;;;-2.17;81.92;97282.66;2178551;81;21268;-63
2021/01/29 01:15:53;;;;;;;24.47;7.47;;;;;;;-2.21;82.22;97278.93;2179041;81;21131;-63
2021/01/29 01:18:55;;;;;;;22.50;7.10;;;;;;;-2.24;82.60;97286.32;2178586;81;21300;-63
2021/01/29 01:21:57;;;;;;;25.15;7.60;;;;;;;-2.34;82.07;97283.64;2178972;81;21103;-62
2021/01/29 01:24:59;;;;;;;22.02;7.10;;;;;;;-2.36;82.56;97287.55;2178464;81;21745;-64
2021/01/29 01:28:02;;;;;;;26.57;8.20;;;;;;;-2.45;81.92;97296.86;2178862;82;21162;-63
2021/01/29 01:31:05;;;;;;;23.92;7.65;;;;;;;-2.57;82.16;97289.13;2178623;81;21713;-63
2021/01/29 01:34:07;;;;;;;23.38;7.42;;;;;;;-2.69;82.66;97289.05;2178552;81;21281;-63
2021/01/29 01:37:09;;;;;;;22.95;7.15;;;;;;;-2.82;82.83;97291.62;2178961;82;21139;-66
2021/01/29 01:40:11;;;;;;;23.50;7.62;;;;;;;-2.96;81.58;97294.62;2178653;81;21585;-63
2021/01/29 01:43:13;;;;;;;24.47;8.18;;;;;;;-3.07;82.62;97298.81;2178500;81;21269;-63
2021/01/29 01:46:15;;;;;;;23.15;8.40;;;;;;;-3.18;82.57;97299.12;2178818;81;21313;-63
2021/01/29 01:49:17;;;;;;;24.63;7.42;;;;;;;-3.27;82.72;97303.71;2178856;81;21137;-65
2021/01/29 01:52:20;;;;;;;25.08;7.22;;;;;;;-3.34;82.43;97310.73;2150559;82;21272;-64
2021/01/29 01:55:22;;;;;;;21.42;7.03;;;;;;;-3.48;82.63;97314.97;2178776;81;21256;-65
2021/01/29 01:58:24;;;;;;;25.75;7.05;;;;;;;-3.55;82.91;97316.89;2178692;81;21281;-63
2021/01/29 02:01:26;;;;;;;24.57;7.17;;;;;;;-3.70;83.27;97314.30;2178506;81;21269;-64
2021/01/29 02:04:29;;;;;;;26.65;8.35;;;;;;;-3.81;82.80;97324.00;2178854;81;21147;-64
2021/01/29 02:07:32;;;;;;;24.67;7.65;;;;;;;-3.88;83.74;97326.33;2178685;82;21317;-64
2021/01/29 02:10:34;;;;;;;27.13;8.20;;;;;;;-3.91;83.96;97329.81;2178971;82;21158;-64
2021/01/29 02:13:36;;;;;;;27.45;8.60;;;;;;;-3.98;84.34;97324.45;2178874;82;21130;-63
2021/01/29 02:16:38;;;;;;;;;;;;;;;-4.02;84.37;97319.04;2180887;81;21300;-63
2021/01/29 02:19:40;;;;;;;23.00;6.87;;;;;;;-4.06;84.71;97327.23;2178522;82;20225;-64
2021/01/29 02:22:43;;;;;;;28.10;10.15;;;;;;;-4.12;85.22;97318.86;2178487;81;21264;-62
2021/01/29 02:25:45;;;;;;;32.95;10.75;;;;;;;-4.11;85.67;97314.14;2178677;81;21724;-64
2021/01/29 02:28:47;;;;;;;26.90;9.15;;;;;;;-4.10;85.86;97321.78;2178920;81;21285;-63
2021/01/29 02:31:49;;;;;;;31.95;11.00;;;;;;;-4.09;85.71;97314.96;2178502;81;21300;-64
2021/01/29 02:34:51;;;;;;;26.68;8.98;;;;;;;-4.10;85.69;97310.26;2178718;81;21306;-63
2021/01/29 02:37:53;;;;;;;30.45;10.13;;;;;;;-4.14;85.83;97310.39;2178690;81;21277;-63
2021/01/29 02:40:55;;;;;;;35.13;10.35;;;;;;;-4.12;85.38;97303.49;2169416;81;21582;-62
2021/01/29 02:43:58;;;;;;;;;;;;;;;-4.15;85.58;97296.75;2163515;82;21155;-63
2021/01/29 02:47:00;;;;;;;27.55;8.85;;;;;;;-4.14;85.41;97299.69;2161154;82;20134;-62
2021/01/29 02:50:03;;;;;;;;;;;;;;;-4.19;86.23;97308.78;2163480;82;21614;-62
2021/01/29 02:53:05;;;;;;;30.50;9.93;;;;;;;-4.19;85.76;97307.50;2161306;82;20135;-62
2021/01/29 02:56:07;;;;;;;34.23;11.63;;;;;;;-4.20;86.25;97309.66;2161403;82;21265;-63
2021/01/29 02:59:09;;;;;;;29.25;10.53;;;;;;;-4.16;86.47;97312.16;2161117;82;21128;-63
2021/01/29 03:02:11;;;;;;;31.42;10.82;;;;;;;-4.14;86.70;97314.23;2160988;82;21139;-63
2021/01/29 03:05:13;;;;;;;33.18;10.30;;;;;;;-4.12;86.63;97318.44;2140206;82;21273;-63
2021/01/29 03:08:16;;;;;;;31.73;11.20;;;;;;;-4.13;86.47;97321.04;2161121;82;21167;-62
2021/01/29 03:11:18;;;;;;;33.38;11.12;;;;;;;-4.18;86.06;97324.98;2140025;82;21765;-63
2021/01/29 03:14:20;;;;;;;33.13;10.72;;;;;;;-4.22;86.47;97324.68;2161203;82;21286;-63
2021/01/29 03:17:22;;;;;;;34.08;11.10;;;;;;;-4.27;86.54;97324.77;2161043;82;21120;-63
2021/01/29 03:20:24;;;;;;;34.08;11.08;;;;;;;-4.33;86.71;97318.54;2161050;82;21131;-63
2021/01/29 03:23:27;;;;;;;34.00;11.97;;;;;;;-4.39;86.60;97331.05;2161037;82;21147;-63
2021/01/29 03:26:29;;;;;;;32.80;10.95;;;;;;;-4.47;86.43;97327.00;2161215;82;21301;-63
2021/01/29 03:29:31;;;;;;;30.48;11.40;;;;;;;-4.51;87.07;97331.38;2161269;82;21278;-65
2021/01/29 03:32:33;;;;;;;29.77;10.43;;;;;;;-4.58;86.82;97333.23;2161442;82;21298;-63
2021/01/29 03:35:35;;;;;;;31.77;11.38;;;;;;;-4.62;87.48;97337.19;2161149;82;21587;-63
2021/01/29 03:38:37;;;;;;;33.90;11.88;;;;;;;-4.62;87.03;97344.86;2161490;82;21588;-63
2021/01/29 03:41:39;;;;;;;32.13;11.83;;;;;;;-4.65;87.37;97338.09;2160926;81;21154;-63
2021/01/29 03:44:42;;;;;;;32.98;10.28;;;;;;;-4.69;86.63;97337.76;2161360;82;21730;-62
2021/01/29 03:47:44;;;;;;;32.50;10.95;;;;;;;-4.73;87.89;97339.98;2140488;82;21138;-63
2021/01/29 03:50:46;;;;;;;36.15;11.25;;;;;;;-4.74;87.61;97344.69;2161224;82;21705;-63
2021/01/29 03:53:48;;;;;;;30.10;11.10;;;;;;;-4.77;87.21;97340.52;2161124;82;21119;-63
2021/01/29 03:56:52;;;;;;;32.03;10.40;;;;;;;-4.79;87.71;97337.58;2160940;82;21572;-62
2021/01/29 03:59:54;;;;;;;32.10;10.70;;;;;;;-4.78;87.03;97332.87;2161438;82;21289;-63
2021/01/29 04:02:56;;;;;;;32.13;12.10;;;;;;;-4.80;87.52;97338.45;2161395;82;21269;-63
2021/01/29 04:05:59;;;;;;;30.20;10.58;;;;;;;-4.83;87.37;97339.35;2161334;82;21155;-62
2021/01/29 04:09:01;;;;;;;30.90;10.53;;;;;;;-4.85;87.26;97339.01;2161441;82;21274;-64
2021/01/29 04:12:03;;;;;;;31.30;10.25;;;;;;;-4.85;87.04;97335.17;2161243;82;21710;-62
2021/01/29 04:15:05;;;;;;;31.75;9.53;;;;;;;-4.85;87.16;97344.12;2161612;82;21294;-63
2021/01/29 04:18:07;;;;;;;34.67;11.18;;;;;;;-4.87;86.95;97344.12;2161268;82;21265;-62
2021/01/29 04:21:09;;;;;;;29.95;10.78;;;;;;;-4.88;87.29;97348.42;2161408;82;21340;-63
2021/01/29 04:24:11;;;;;;;30.20;10.55;;;;;;;-4.92;86.68;97341.69;2161641;82;21285;-62
2021/01/29 04:27:14;;;;;;;35.38;10.90;;;;;;;-4.95;86.69;97343.48;2140336;82;21179;-63
2021/01/29 04:30:17;;;;;;;37.03;11.50;;;;;;;-4.99;86.61;97345.26;2161456;82;21266;-62
2021/01/29 04:33:19;;;;;;;31.70;10.50;;;;;;;-5.02;86.91;97347.89;2161510;82;21285;-62
2021/01/29 04:36:22;;;;;;;33.92;10.38;;;;;;;-5.05;87.36;97348.79;2161179;82;21164;-62
2021/01/29 04:39:24;;;;;;;27.42;8.68;;;;;;;-5.07;86.82;97356.95;2140106;82;21250;-63
2021/01/29 04:42:26;;;;;;;29.65;9.55;;;;;;;-5.13;87.17;97357.51;2175683;81;21312;-64
2021/01/29 04:45:28;;;;;;;25.50;9.03;;;;;;;-5.15;87.58;97361.83;2178653;81;21320;-63
2021/01/29 04:48:30;;;;;;;;;;;;;;;-5.19;87.12;97360.20;2181066;82;21305;-64
2021/01/29 04:51:32;;;;;;;23.40;7.00;;;;;;;-5.22;87.56;97363.66;2178722;82;20217;-65
2021/01/29 04:54:35;;;;;;;30.43;9.80;;;;;;;-5.24;87.48;97364.14;2178431;81;21260;-65
2021/01/29 04:57:38;;;;;;;;;;;;;;;-5.25;87.48;97357.34;2181100;82;21174;-64
2021/01/29 05:00:41;;;;;;;28.03;9.30;;;;;;;-5.25;87.58;97363.28;2178958;82;20121;-63
2021/01/29 05:03:43;;;;;;;28.87;9.43;;;;;;;-5.27;87.63;97359.09;2178455;81;21146;-63
2021/01/29 05:06:46;;;;;;;34.18;10.10;;;;;;;-5.27;87.39;97363.77;2178588;82;21603;-63
2021/01/29 05:09:48;;;;;;;30.57;8.78;;;;;;;-5.24;87.65;97358.58;2179045;81;21269;-63
2021/01/29 05:12:50;;;;;;;27.77;8.93;;;;;;;-5.19;87.81;97362.31;2178652;81;21705;-64
2021/01/29 05:15:52;;;;;;;27.95;8.70;;;;;;;-5.12;87.63;97361.30;2178989;81;21275;-66
2021/01/29 05:18:54;;;;;;;28.47;7.37;;;;;;;-5.03;87.63;97379.44;2178679;81;21261;-63
2021/01/29 05:21:56;;;;;;;28.57;9.30;;;;;;;-4.95;87.57;97376.28;2178662;81;21288;-63
2021/01/29 05:24:59;;;;;;;29.52;8.48;;;;;;;-4.85;87.34;97366.70;2178503;82;21265;-63
2021/01/29 05:28:04;;;;;;;26.85;8.98;;;;;;;-4.77;87.16;97369.07;2178814;82;21194;-63
2021/01/29 05:31:06;;;;;;;29.52;8.43;;;;;;;-4.69;86.96;97369.74;2178647;81;21724;-65
2021/01/29 05:34:08;;;;;;;26.77;6.97;;;;;;;-4.62;86.90;97365.34;2178504;81;21288;-65
2021/01/29 05:37:10;;;;;;;29.18;7.95;;;;;;;-4.54;86.50;97365.97;2178489;82;21748;-68
2021/01/29 05:40:12;;;;;;;26.10;7.53;;;;;;;-4.49;86.52;97365.89;2150844;81;21296;-70
2021/01/29 05:43:14;;;;;;;27.00;8.08;;;;;;;-4.45;86.23;97372.17;2178740;81;21746;-66
2021/01/29 05:46:16;;;;;;;27.30;8.15;;;;;;;-4.40;86.31;97372.88;2178938;81;21296;-66
2021/01/29 05:49:19;;;;;;;26.75;7.70;;;;;;;-4.36;86.25;97365.98;2178764;82;21297;-65
2021/01/29 05:52:21;;;;;;;26.62;7.78;;;;;;;-4.31;86.00;97370.98;2178980;81;21147;-64
2021/01/29 05:55:23;;;;;;;29.98;7.33;;;;;;;-4.31;85.79;97364.16;2178507;81;21582;-64
2021/01/29 05:58:25;;;;;;;26.12;7.45;;;;;;;-4.25;85.49;97370.83;2178497;81;21276;-64
2021/01/29 06:01:27;;;;;;;27.50;8.65;;;;;;;-4.24;85.44;97364.41;2178596;81;21285;-64
2021/01/29 06:04:30;;;;;;;26.95;7.33;;;;;;;-4.22;85.67;97362.64;2178520;82;21285;-64
2021/01/29 06:07:32;;;;;;;25.95;7.50;;;;;;;-4.22;85.30;97364.37;2178928;82;21162;-65
2021/01/29 06:10:34;;;;;;;;;;;;;;;-4.23;85.37;97357.11;2181437;81;21268;-64
2021/01/29 06:13:36;;;;;;;24.07;5.83;;;;;;;-4.21;85.45;97357.93;2178976;82;20158;-65
2021/01/29 06:16:39;;;;;;;27.10;8.43;;;;;;;-4.20;85.21;97360.04;2178473;81;21151;-65
2021/01/29 06:19:41;;;;;;;26.48;7.83;;;;;;;-4.22;84.88;97355.41;2178933;81;21147;-65
2021/01/29 06:22:43;;;;;;;26.70;7.62;;;;;;;-4.21;84.76;97357.06;2178656;81;21111;-66
2021/01/29 06:25:45;;;;;;;26.30;8.00;;;;;;;-4.22;85.02;97360.53;2178489;81;21130;-66
2021/01/29 06:28:47;;;;;;;22.40;6.75;;;;;;;-4.31;84.90;97344.96;2178400;82;21701;-65
2021/01/29 06:31:50;;;;;;;25.55;7.15;;;;;;;-4.22;84.49;97354.95;2178515;81;21265;-66
2021/01/29 06:34:52;;;;;;;27.37;7.62;;;;;;;-4.22;84.52;97347.27;2178471;82;21126;-65
2021/01/29 06:37:54;;;;;;;;;;;;;;;-4.20;84.77;97355.75;2181363;81;21155;-65
2021/01/29 06:40:57;;;;;;;25.27;7.15;;;;;;;-4.19;84.67;97357.44;2178396;81;20228;-65
2021/01/29 06:43:59;;;;;;;22.85;6.78;;;;;;;-4.16;84.75;97356.52;2178419;81;21285;-65
2021/01/29 06:47:01;;;;;;;26.48;7.05;;;;;;;-4.15;84.65;97353.09;2178399;82;21293;-67
2021/01/29 06:50:04;;;;;;;;;;;;;;;-4.15;84.44;97341.57;2181036;81;21780;-66
2021/01/29 06:53:07;;;;;;;;;;;;;;;-4.16;84.54;97345.00;2180902;82;20232;-65
2021/01/29 06:56:09;;;;;;;24.83;7.03;;;;;;;-4.16;84.53;97336.04;2178693;82;20221;-65
2021/01/29 06:59:11;;;;;;;24.50;7.17;;;;;;;-4.14;84.77;97329.14;2178571;81;21562;-66
2021/01/29 07:02:13;;;;;;;23.67;7.67;;;;;;;-4.11;84.73;97333.34;2150600;82;21288;-65
2021/01/29 07:05:15;;;;;;;29.00;8.83;;;;;;;-4.03;84.94;97341.23;2178917;82;21102;-65
2021/01/29 07:08:17;;;;;;;33.95;10.08;;;;;;;-3.99;84.48;97356.09;2178634;81;21284;-66
2021/01/29 07:11:19;;;;;;;34.70;9.25;;;;;;;-4.00;84.32;97348.83;2178556;82;21170;-65
2021/01/29 07:14:24;;;;;;;28.47;9.00;;;;;;;-3.97;84.18;97353.49;2178405;81;21709;-65
2021/01/29 07:17:26;;;;;;;30.60;8.00;;;;;;;-3.98;83.93;97356.47;2151106;82;21265;-65
2021/01/29 07:20:29;;;;;;;30.30;9.20;;;;;;;-3.94;83.82;97364.48;2178654;82;21804;-65
2021/01/29 07:23:31;;;;;;;26.57;7.05;;;;;;;-3.92;83.76;97359.31;2178384;82;21712;-65
2021/01/29 07:26:33;;;;;;;30.37;7.78;;;;;;;-3.93;83.17;97370.47;2178642;82;21713;-65
2021/01/29 07:29:35;;;;;;;31.93;9.60;;;;;;;-3.92;82.84;97355.05;2178695;82;21312;-65
2021/01/29 07:32:38;;;;;;;32.10;9.15;;;;;;;-3.90;83.61;97357.13;2178463;81;21170;-65
2021/01/29 07:35:40;;;;;;;31.02;8.88;;;;;;;-3.81;83.49;97353.92;2150947;82;21284;-66
2021/01/29 07:38:42;;;;;;;27.13;7.50;;;;;;;-3.75;83.27;97349.48;2178906;81;21717;-67
2021/01/29 07:41:44;;;;;;;29.27;9.18;;;;;;;-3.71;82.34;97344.64;2149037;82;21705;-65
2021/01/29 07:44:47;;;;;;;;;;;;;;;-3.64;82.40;97358.14;2176588;82;21729;-65
2021/01/29 07:47:51;;;;;;;31.90;9.08;;;;;;;-3.65;82.12;97352.61;2173947;82;20162;-66
2021/01/29 07:50:53;;;;;;;27.25;8.23;;;;;;;-3.60;82.67;97349.49;2174293;82;21276;-65
2021/01/29 07:53:56;;;;;;;;;;;;;;;-3.56;81.95;97334.85;2176602;82;21571;-66
2021/01/29 07:56:58;;;;;;;25.30;7.00;;;;;;;-3.49;81.97;97330.81;2174325;82;20256;-65
2021/01/29 08:00:00;;;;;;;21.82;5.67;;;;;;;-3.41;80.59;97315.64;2174195;82;21273;-66
2021/01/29 08:03:02;;;;;;;22.55;6.65;;;;;;;-3.36;79.96;97320.18;2174175;82;21720;-66
2021/01/29 08:06:04;;;;;;;24.77;7.12;;;;;;;-3.35;80.24;97310.33;2174115;82;21752;-66
2021/01/29 08:09:07;;;;;;;28.23;8.48;;;;;;;-3.24;80.01;97308.30;2173995;82;21127;-67
2021/01/29 08:12:09;;;;;;;23.10;6.33;;;;;;;-3.10;79.91;97304.46;2173974;81;21262;-67
2021/01/29 08:15:11;;;;;;;22.67;6.85;;;;;;;-3.05;78.98;97297.48;2174325;82;21159;-70
2021/01/29 08:18:14;;;;;;;25.92;7.42;;;;;;;-3.10;79.24;97300.62;2174108;82;21178;-69
2021/01/29 08:21:17;;;;;;;27.87;7.58;;;;;;;-3.06;78.88;97290.66;2174463;82;21130;-67
2021/01/29 08:24:19;;;;;;;29.32;9.18;;;;;;;-3.10;78.30;97291.22;2174214;82;21317;-66
2021/01/29 08:27:21;;;;;;;29.82;9.75;;;;;;;-3.05;78.25;97288.50;2174023;82;21618;-66
2021/01/29 08:30:23;;;;;;;28.60;9.13;;;;;;;-2.96;78.51;97285.63;2174392;82;21265;-69
2021/01/29 08:33:25;;;;;;;26.40;7.90;;;;;;;-2.97;77.85;97278.39;2174211;82;21099;-65
2021/01/29 08:36:28;;;;;;;26.82;7.97;;;;;;;-2.94;77.90;97278.75;2143178;82;21107;-66
2021/01/29 08:39:30;;;;;;;24.80;7.20;;;;;;;-2.88;78.56;97272.58;2173968;82;21265;-65
2021/01/29 08:42:32;;;;;;;24.52;7.47;;;;;;;-2.90;76.77;97263.66;2167525;81;21706;-65
2021/01/29 08:45:34;;;;;;;27.42;8.10;;;;;;;-2.81;77.80;97271.50;2161581;82;21147;-71
2021/01/29 08:48:37;;;;;;;24.50;8.03;;;;;;;-2.73;78.10;97257.13;2161078;82;21164;-68
2021/01/29 08:51:39;;;;;;;26.77;7.95;;;;;;;-2.62;78.02;97258.44;2161150;82;21147;-66
2021/01/29 08:54:41;;;;;;;26.60;7.62;;;;;;;-2.58;77.76;97252.78;2161366;82;21285;-67
2021/01/29 08:57:43;;;;;;;21.35;6.92;;;;;;;-2.59;77.71;97250.27;2161368;82;21269;-70
2021/01/29 09:00:45;;;;;;;25.05;7.78;;;;;;;-2.61;77.18;97256.28;2161238;82;21135;-67
2021/01/29 09:03:48;;;;;;;26.50;7.67;;;;;;;-2.67;76.64;97255.20;2161132;82;21756;-66
2021/01/29 09:06:50;;;;;;;24.47;7.10;;;;;;;-2.56;77.11;97252.72;2161180;82;21570;-66
2021/01/29 09:09:52;;;;;;;22.02;7.33;;;;;;;-2.58;75.13;97237.83;2161603;82;21142;-65
2021/01/29 09:12:54;;;;;;;24.77;7.12;;;;;;;-2.58;75.13;97237.83;2161137;82;21132;-66
2021/01/29 09:15:56;;;;;;;23.57;7.37;;;;;;;-2.42;76.54;97254.84;2161316;82;21176;-66
2021/01/29 09:18:59;;;;;;;25.17;7.00;;;;;;;-2.45;76.13;97253.20;2161345;82;21112;-65
2021/01/29 09:22:01;;;;;;;22.02;6.20;;;;;;;-2.39;75.05;97247.02;2161593;82;21285;-65
2021/01/29 09:25:05;;;;;;;21.50;6.05;;;;;;;-2.40;74.38;97248.73;2161491;82;21174;-66
2021/01/29 09:28:08;;;;;;;20.68;6.00;;;;;;;-2.29;73.54;97249.66;2161278;82;21317;-66
2021/01/29 09:31:11;;;;;;;22.75;6.10;;;;;;;-2.31;73.15;97255.31;2161140;82;21135;-65
2021/01/29 09:34:13;;;;;;;22.20;6.08;;;;;;;-2.36;73.07;97255.91;2161166;82;21270;-64
2021/01/29 09:37:15;;;;;;;19.70;5.70;;;;;;;-2.28;74.40;97247.50;2161274;82;21705;-70
2021/01/29 09:40:17;;;;;;;24.50;6.10;;;;;;;-2.23;72.79;97253.30;2161324;82;21303;-71
2021/01/29 09:43:19;;;;;;;20.72;5.17;;;;;;;-2.18;73.01;97238.58;2172725;81;21169;-70
2021/01/29 09:46:22;;;;;;;20.50;5.95;;;;;;;-2.18;72.13;97245.45;2178755;82;21272;-68
2021/01/29 09:49:24;;;;;;;21.02;6.00;;;;;;;-2.14;72.02;97252.99;2178636;81;21586;-68
2021/01/29 09:52:26;;;;;;;;;;;;;;;-1.98;72.65;97246.03;2153316;82;21581;-66
2021/01/29 09:55:28;;;;;;;21.27;5.97;;;;;;;-1.96;71.49;97250.20;2178939;82;20276;-66
2021/01/29 09:58:34;;;;;;;22.20;6.45;;;;;;;-1.94;70.62;97253.58;2178880;81;21133;-67
2021/01/29 10:01:36;;;;;;;23.73;6.50;;;;;;;-1.90;70.86;97264.56;2178420;81;21142;-66
2021/01/29 10:04:38;;;;;;;21.17;5.90;;;;;;;-1.92;71.98;97257.37;2178969;82;21166;-66
2021/01/29 10:07:40;;;;;;;21.37;5.35;;;;;;;-2.07;70.81;97265.16;2178441;81;21135;-66
2021/01/29 10:10:43;;;;;;;22.02;6.40;;;;;;;-2.10;71.57;97250.71;2178541;81;21677;-66
2021/01/29 10:13:45;;;;;;;22.45;6.08;;;;;;;-2.09;72.03;97256.68;2178828;81;21126;-65
2021/01/29 10:16:47;;;;;;;22.27;6.50;;;;;;;-2.10;72.10;97246.86;2178535;82;21609;-65
2021/01/29 10:19:50;;;;;;;25.95;7.10;;;;;;;-2.02;71.92;97249.14;2178941;81;21148;-65
2021/01/29 10:22:56;;;;;;;27.05;6.83;;;;;;;-2.00;72.49;97254.23;2178959;82;21129;-65
2021/01/29 10:25:58;;;;;;;22.52;6.42;;;;;;;-1.91;73.49;97255.20;2178601;81;21285;-65
2021/01/29 10:29:01;;;;;;;25.17;7.47;;;;;;;-1.69;71.59;97241.11;2178161;82;21107;-66
2021/01/29 10:32:04;;;;;;;;;;;;;;;-1.45;72.87;97246.21;2180905;81;21768;-66
2021/01/29 10:35:06;;;;;;;27.55;8.10;;;;;;;-1.22;71.89;97245.36;2178578;82;20500;-66
2021/01/29 10:38:09;;;;;;;22.45;5.92;;;;;;;-1.22;69.51;97237.64;2178454;82;21296;-66
2021/01/29 10:41:11;;;;;;;;;;;;;;;-0.95;68.49;97237.44;2181157;81;21304;-66
2021/01/29 10:44:13;;;;;;;25.92;7.60;;;;;;;-0.58;68.45;97230.80;2178570;81;20229;-68
2021/01/29 10:47:16;;;;;;;22.73;7.12;;;;;;;-0.25;70.00;97222.55;2178909;82;21162;-66
2021/01/29 10:50:18;;;;;;;23.10;6.33;;;;;;;-0.64;67.99;97221.58;2178469;81;21281;-66
2021/01/29 10:53:21;;;;;;;20.48;5.83;;;;;;;-0.92;68.20;97222.72;2178711;81;21142;-67
2021/01/29 10:56:23;;;;;;;22.82;7.25;;;;;;;-1.15;68.08;97216.34;2178634;81;21297;-66
2021/01/29 10:59:25;;;;;;;25.95;8.65;;;;;;;-1.08;70.59;97213.49;2178474;81;21107;-66
2021/01/29 11:02:28;;;;;;;24.57;7.67;;;;;;;-0.28;68.70;97200.78;2178607;82;21860;-66
2021/01/29 11:05:30;;;;;;;24.60;7.42;;;;;;;-0.09;65.14;97196.47;2178615;82;21577;-66
2021/01/29 11:08:32;;;;;;;20.25;5.78;;;;;;;-0.07;65.50;97196.41;2178822;82;21162;-66
2021/01/29 11:11:35;;;;;;;;;;;;;;;-0.15;63.45;97198.05;2181145;81;21277;-66
2021/01/29 11:14:37;;;;;;;22.43;6.40;;;;;;;-0.20;64.65;97196.96;2179140;82;20233;-67
2021/01/29 11:17:39;;;;;;;23.52;6.47;;;;;;;-0.28;64.86;97188.72;2178626;82;21329;-66
2021/01/29 11:20:41;;;;;;;28.95;7.90;;;;;;;-0.30;64.57;97187.96;2178672;82;21127;-69
2021/01/29 11:23:43;;;;;;;23.52;6.53;;;;;;;-0.27;65.95;97185.25;2179146;81;21174;-68
2021/01/29 11:26:45;;;;;;;24.57;7.45;;;;;;;-0.12;65.94;97185.02;2178586;81;21615;-67
2021/01/29 11:29:48;;;;;;;25.37;8.05;;;;;;;0.00;65.03;97183.66;2179105;82;21154;-67
2021/01/29 11:32:50;;;;;;;;;;;;;;;0.15;65.21;97176.50;2181306;81;21166;-66
2021/01/29 11:35:52;;;;;;;27.03;7.73;;;;;;;0.29;64.41;97173.77;2179212;82;20225;-66
2021/01/29 11:38:56;;;;;;;;;;;;;;;0.41;64.64;97169.78;2181132;81;21268;-66
2021/01/29 11:41:58;;;;;;;25.37;7.30;;;;;;;0.63;63.84;97166.58;2177549;81;20284;-66
2021/01/29 11:45:02;;;;;;;25.25;7.87;;;;;;;0.83;65.04;97161.76;2161451;82;21698;-72
2021/01/29 11:48:07;;;;;;;24.92;7.28;;;;;;;0.98;64.66;97161.92;2161028;82;21308;-67
2021/01/29 11:51:09;;;;;;;24.70;7.42;;;;;;;1.19;64.97;97158.28;2161189;82;21709;-66
2021/01/29 11:54:11;;;;;;;25.25;8.53;;;;;;;1.36;64.29;97144.96;2161206;82;21282;-67
2021/01/29 11:57:14;;;;;;;24.52;7.72;;;;;;;1.39;62.90;97146.09;2161166;82;21151;-66
2021/01/29 12:00:16;;;;;;;26.48;7.92;;;;;;;1.27;62.24;97155.31;2161707;82;21285;-71
2021/01/29 12:03:18;;;;;;;23.52;8.15;;;;;;;0.96;61.52;97152.97;2161448;82;21764;-66
2021/01/29 12:06:21;;;;;;;27.45;8.45;;;;;;;0.90;62.51;97151.13;2161144;82;21290;-66
2021/01/29 12:09:23;;;;;;;28.00;8.38;;;;;;;0.81;62.75;97144.67;2161656;82;21151;-66
2021/01/29 12:12:25;;;;;;;26.90;7.95;;;;;;;0.82;62.37;97147.61;2161309;82;21278;-66
2021/01/29 12:15:28;;;;;;;;;;;;;;;0.53;63.87;97140.80;2163706;82;21309;-67
2021/01/29 12:18:32;;;;;;;25.10;7.83;;;;;;;0.34;62.62;97137.83;2161232;82;20402;-66
2021/01/29 12:21:34;;;;;;;26.85;8.80;;;;;;;0.12;64.47;97137.97;2161977;82;21297;-66
2021/01/29 12:24:37;;;;;;;30.65;9.15;;;;;;;0.14;63.74;97128.44;2161024;82;21269;-66
2021/01/29 12:27:39;;;;;;;30.32;9.98;;;;;;;0.14;64.98;97118.56;2161578;82;21179;-66
2021/01/29 12:30:41;;;;;;;29.07;10.63;;;;;;;0.24;65.11;97115.93;2161173;82;21120;-66
2021/01/29 12:33:44;;;;;;;26.75;8.83;;;;;;;0.34;65.32;97117.63;2161248;82;21741;-66
2021/01/29 12:36:46;;;;;;;30.12;10.15;;;;;;;0.36;65.67;97109.38;2161358;82;21115;-67
2021/01/29 12:39:48;;;;;;;28.10;7.83;;;;;;;0.58;65.82;97103.20;2161292;82;21749;-66
2021/01/29 12:42:51;;;;;;;26.27;8.28;;;;;;;0.89;66.44;97106.41;2161185;82;21302;-65
2021/01/29 12:45:53;;;;;;;24.27;7.87;;;;;;;1.44;66.48;97098.91;2161353;82;21709;-66
2021/01/29 12:48:55;;;;;;;24.45;8.33;;;;;;;1.86;64.33;97091.09;2161349;82;21737;-65
2021/01/29 12:51:57;;;;;;;26.45;8.28;;;;;;;2.21;64.36;97083.64;2161147;82;21156;-66
2021/01/29 12:55:00;;;;;;;27.75;8.43;;;;;;;2.59;64.63;97081.50;2161175;82;21285;-67
2021/01/29 12:58:03;;;;;;;27.62;8.98;;;;;;;2.99;63.97;97074.95;2161368;82;21265;-67
2021/01/29 13:01:05;;;;;;;27.80;8.83;;;;;;;3.39;63.01;97072.60;2161363;82;21293;-67
2021/01/29 13:04:07;;;;;;;26.85;9.20;;;;;;;3.56;62.81;97071.16;2161270;82;21710;-67
2021/01/29 13:07:10;;;;;;;26.30;8.48;;;;;;;3.89;62.21;97067.39;2161311;82;21594;-67
2021/01/29 13:10:14;;;;;;;25.25;8.65;;;;;;;4.06;61.90;97067.64;2161164;82;21155;-67
2021/01/29 13:13:16;;;;;;;23.55;8.65;;;;;;;4.03;60.48;97063.12;2161252;82;21729;-68
2021/01/29 13:16:18;;;;;;;24.75;9.05;;;;;;;3.75;60.92;97063.08;2140154;82;21750;-67
2021/01/29 13:19:21;;;;;;;27.85;8.30;;;;;;;3.84;61.97;97060.38;2161289;82;21273;-66
2021/01/29 13:22:23;;;;;;;27.67;8.60;;;;;;;3.82;61.47;97060.91;2161560;82;21309;-68
2021/01/29 13:25:26;;;;;;;26.52;8.23;;;;;;;3.63;61.02;97058.63;2160962;82;21642;-66
2021/01/29 13:28:28;;;;;;;26.07;8.33;;;;;;;3.77;62.22;97062.50;2161112;82;21203;-66
2021/01/29 13:31:30;;;;;;;24.92;8.43;;;;;;;3.94;61.56;97060.17;2161568;82;21288;-66
2021/01/29 13:34:32;;;;;;;25.55;8.43;;;;;;;3.94;61.38;97054.98;2161343;82;21143;-66
2021/01/29 13:37:34;;;;;;;27.62;8.80;;;;;;;3.86;61.33;97047.31;2140120;82;21162;-66
2021/01/29 13:40:37;;;;;;;26.45;9.35;;;;;;;3.96;61.22;97048.39;2161604;82;21293;-68
2021/01/29 13:43:41;;;;;;;30.92;10.60;;;;;;;3.79;61.24;97041.66;2161379;81;21147;-66
2021/01/29 13:46:43;;;;;;;30.25;10.15;;;;;;;3.94;61.02;97043.30;2169669;81;21273;-66
2021/01/29 13:49:45;;;;;;;30.62;10.98;;;;;;;4.00;60.81;97038.20;2178966;81;21158;-66
2021/01/29 13:52:48;;;;;;;28.65;10.48;;;;;;;3.98;60.90;97034.88;2178607;82;21304;-66
2021/01/29 13:55:52;;;;;;;30.52;11.10;;;;;;;3.83;60.77;97030.64;2178810;81;21150;-66
2021/01/29 13:58:54;;;;;;;31.52;10.88;;;;;;;3.73;60.90;97026.02;2178389;82;21141;-67
2021/01/29 14:01:56;;;;;;;29.87;11.25;;;;;;;3.79;61.19;97032.14;2178733;82;21732;-68
2021/01/29 14:04:59;;;;;;;29.98;10.85;;;;;;;3.81;60.91;97031.56;2178711;81;21292;-66
2021/01/29 14:08:01;;;;;;;33.42;11.75;;;;;;;3.76;60.96;97035.37;2178475;81;21292;-71
2021/01/29 14:11:03;;;;;;;33.53;11.97;;;;;;;3.67;60.61;97026.40;2150756;82;21578;-69